TimeEDT,TemperatureF,Dew PointF,Humidity,Sea Level PressureIn,VisibilityMPH,Wind Direction,Wind SpeedMPH,Gust SpeedMPH,PrecipitationIn,Events,Conditions,WindDirDegrees,DateUTC
12:53 AM,39.9,33.1,77,30.02,10.0,Calm,Calm,-,N/A,,Overcast,0,2013-03-29 04:53:00
1:53 AM,37.0,33.1,86,30.03,10.0,Calm,Calm,-,N/A,,Mostly Cloudy,0,2013-03-29 05:53:00
2:53 AM,32.0,30.9,96,30.02,10.0,Calm,Calm,-,N/A,,Clear,0,2013-03-29 06:53:00
3:53 AM,32.0,30.9,96,30.02,10.0,Calm,Calm,-,N/A,,Clear,0,2013-03-29 07:53:00
4:53 AM,30.0,28.0,92,30.02,10.0,Calm,Calm,-,N/A,,Clear,0,2013-03-29 08:53:00
5:53 AM,30.0,28.9,96,30.03,10.0,Calm,Calm,-,N/A,,Clear,0,2013-03-29 09:53:00
6:53 AM,30.0,28.0,92,30.04,10.0,Calm,Calm,-,N/A,,Clear,0,2013-03-29 10:53:00
7:53 AM,37.9,35.1,89,30.04,10.0,Calm,Calm,-,N/A,,Clear,0,2013-03-29 11:53:00
8:53 AM,46.9,33.1,59,30.04,10.0,NW,8.1,-,N/A,,Clear,320,2013-03-29 12:53:00
9:53 AM,51.1,33.1,50,30.04,10.0,NW,15.0,21.9,N/A,,Partly Cloudy,310,2013-03-29 13:53:00
10:53 AM,52.0,33.1,49,30.04,10.0,North,10.4,-,N/A,,Overcast,350,2013-03-29 14:53:00
11:53 AM,54.0,33.1,45,30.03,10.0,NW,12.7,-,N/A,,Overcast,310,2013-03-29 15:53:00
12:53 PM,57.0,30.0,36,30.02,10.0,NW,10.4,-,N/A,,Partly Cloudy,320,2013-03-29 16:53:00
1:53 PM,55.9,28.0,34,29.99,10.0,NW,4.6,-,N/A,,Clear,320,2013-03-29 17:53:00
2:53 PM,55.0,27.0,34,29.97,10.0,SW,6.9,-,N/A,,Overcast,220,2013-03-29 18:53:00
3:53 PM,55.9,26.1,32,29.96,10.0,NNW,8.1,-,N/A,,Overcast,340,2013-03-29 19:53:00
4:53 PM,55.0,25.0,31,29.96,10.0,West,9.2,-,N/A,,Overcast,270,2013-03-29 20:53:00
5:53 PM,53.1,28.0,38,29.98,10.0,WNW,12.7,-,N/A,,Overcast,290,2013-03-29 21:53:00
6:53 PM,52.0,30.0,43,29.99,10.0,NW,10.4,-,N/A,,Overcast,310,2013-03-29 22:53:00
7:53 PM,48.0,28.0,46,30.00,10.0,Calm,Calm,-,N/A,,Partly Cloudy,0,2013-03-29 23:53:00
8:53 PM,46.9,28.9,50,30.02,10.0,NW,6.9,-,N/A,,Mostly Cloudy,310,2013-03-30 00:53:00
9:53 PM,46.9,28.9,50,30.04,10.0,NW,8.1,-,N/A,,Overcast,320,2013-03-30 01:53:00
10:53 PM,46.0,30.0,54,30.04,10.0,WNW,4.6,-,N/A,,Overcast,300,2013-03-30 02:53:00
11:53 PM,45.0,30.9,58,30.04,10.0,WNW,4.6,-,N/A,,Overcast,290,2013-03-30 03:53:00